Time;durP1;ratioP1;P1;durP2;ratioP2;P2;SDS_P1;SDS_P2;PMS_P1;PMS_P2;Temp;Humidity;BMP_temperature;BMP_pressure;BME280_temperature;BME280_humidity;BME280_pressure;Samples;Min_cycle;Max_cycle;Signal;HPM_P1;HPM_P2
2022/04/18 00:00:42;;;;;;;1.70;1.33;;;19.50;96.70;;;;;;4218867;27;20218;-74
2022/04/18 00:02:44;;;;;;;1.35;1.17;;;19.50;96.70;;;;;;4227403;27;20270;-74
2022/04/18 00:04:47;;;;;;;1.73;1.27;;;19.50;96.70;;;;;;4223962;27;20277;-74
2022/04/18 00:06:50;;;;;;;1.88;1.17;;;19.50;96.70;;;;;;4228436;27;20217;-74
2022/04/18 00:08:52;;;;;;;1.40;1.30;;;19.50;96.70;;;;;;4227755;27;20221;-74
2022/04/18 00:10:54;;;;;;;1.50;1.40;;;19.50;96.50;;;;;;4226247;27;20219;-74
2022/04/18 00:12:56;;;;;;;1.42;1.20;;;19.50;96.50;;;;;;4230186;27;20723;-74
2022/04/18 00:15:00;;;;;;;1.23;1.10;;;19.40;96.50;;;;;;4224788;27;20217;-74
2022/04/18 00:17:03;;;;;;;1.10;1.00;;;19.40;96.50;;;;;;4227864;27;20266;-74
2022/04/18 00:19:08;;;;;;;1.63;1.15;;;19.40;96.60;;;;;;4226907;27;20218;-74
2022/04/18 00:21:10;;;;;;;1.27;1.08;;;19.40;96.60;;;;;;4223126;28;20217;-74
2022/04/18 00:23:16;;;;;;;1.63;1.35;;;19.40;96.50;;;;;;4224313;28;20705;-74
2022/04/18 00:25:19;;;;;;;2.35;1.50;;;19.40;96.40;;;;;;4224296;27;20225;-74
2022/04/18 00:27:21;;;;;;;1.50;1.20;;;19.40;96.40;;;;;;4223982;27;20221;-74
2022/04/18 00:29:23;;;;;;;1.65;1.20;;;19.40;96.40;;;;;;4222210;28;20226;-74
2022/04/18 00:31:27;;;;;;;1.27;1.10;;;19.50;96.60;;;;;;4223798;28;20225;-74
2022/04/18 00:33:29;;;;;;;1.33;0.95;;;19.40;96.60;;;;;;4224180;28;20237;-74
2022/04/18 00:35:32;;;;;;;1.10;0.98;;;19.40;96.60;;;;;;4223647;27;20221;-76
2022/04/18 00:37:36;;;;;;;1.42;1.20;;;19.40;96.60;;;;;;4210784;28;20221;-76
2022/04/18 00:39:41;;;;;;;3.28;1.20;;;19.40;96.40;;;;;;4209120;28;20240;-76
2022/04/18 00:41:44;;;;;;;1.08;0.98;;;19.40;96.70;;;;;;4208766;28;20267;-76
2022/04/18 00:43:49;;;;;;;1.27;1.00;;;19.40;96.80;;;;;;4210737;28;20276;-76
2022/04/18 00:45:52;;;;;;;1.58;1.30;;;19.40;96.70;;;;;;4204825;28;20226;-76
2022/04/18 00:47:55;;;;;;;1.40;1.13;;;19.40;96.50;;;;;;4209477;28;20224;-76
2022/04/18 00:49:58;;;;;;;1.60;1.08;;;19.40;96.60;;;;;;4209340;28;20610;-77
2022/04/18 00:52:05;;;;;;;1.38;1.20;;;19.30;96.60;;;;;;4214462;28;20217;-77
2022/04/18 00:54:09;;;;;;;2.28;1.23;;;19.40;96.70;;;;;;4211330;28;20246;-76
2022/04/18 00:56:15;;;;;;;1.35;1.23;;;19.30;96.60;;;;;;4211517;28;20226;-76
2022/04/18 00:58:17;;;;;;;1.52;1.40;;;19.30;96.60;;;;;;4209909;28;20230;-76
2022/04/18 01:00:20;;;;;;;1.27;1.10;;;19.30;96.60;;;;;;4207579;28;20218;-76
2022/04/18 01:02:22;;;;;;;1.95;1.50;;;19.30;96.50;;;;;;4207077;28;20295;-76
2022/04/18 01:04:27;;;;;;;1.67;1.27;;;19.30;96.40;;;;;;4210224;28;20219;-76
2022/04/18 01:06:29;;;;;;;1.73;1.30;;;19.30;96.60;;;;;;4205513;28;20226;-76
2022/04/18 01:08:34;;;;;;;2.72;1.50;;;19.30;96.60;;;;;;4207675;28;20271;-76
2022/04/18 01:10:38;;;;;;;1.65;1.30;;;19.30;96.60;;;;;;4214653;28;20267;-76
2022/04/18 01:12:41;;;;;;;1.45;1.33;;;19.30;96.60;;;;;;4205827;28;20222;-76
2022/04/18 01:14:47;;;;;;;1.95;1.58;;;19.30;96.40;;;;;;4211007;28;20566;-76
2022/04/18 01:16:50;;;;;;;1.75;1.40;;;19.30;96.40;;;;;;4208658;28;20230;-76
2022/04/18 01:18:52;;;;;;;1.67;1.30;;;19.30;96.40;;;;;;4208668;28;20227;-76
2022/04/18 01:20:56;;;;;;;2.05;1.60;;;19.30;96.30;;;;;;4211067;28;20267;-76
2022/04/18 01:22:59;;;;;;;1.83;1.40;;;19.30;96.20;;;;;;4210909;28;20215;-77
2022/04/18 01:29:41;;;;;;;2.05;1.70;;;19.30;96.40;;;;;;4208588;28;20218;-76
2022/04/18 01:31:47;;;;;;;1.90;1.58;;;19.30;96.30;;;;;;4210234;28;20219;-76
2022/04/18 01:33:51;;;;;;;1.85;1.50;;;19.30;96.30;;;;;;4209591;28;20752;-77
2022/04/18 01:35:53;;;;;;;2.58;1.80;;;19.30;96.40;;;;;;4213076;28;20245;-76
2022/04/18 01:37:57;;;;;;;2.08;1.70;;;19.30;96.30;;;;;;4208186;28;20226;-77
2022/04/18 01:39:59;;;;;;;2.25;1.80;;;19.20;96.10;;;;;;4207725;28;20230;-77
2022/04/18 01:42:01;;;;;;;2.20;1.83;;;19.30;96.00;;;;;;4207429;28;20303;-77
2022/04/18 01:44:04;;;;;;;2.10;1.90;;;19.30;96.20;;;;;;4202794;28;20276;-77
2022/04/18 01:46:06;;;;;;;2.00;1.80;;;19.20;96.20;;;;;;4204522;28;20222;-77
2022/04/18 01:48:09;;;;;;;2.78;2.30;;;19.20;96.10;;;;;;4205644;28;20218;-77
2022/04/18 01:50:12;;;;;;;2.08;1.73;;;19.20;96.20;;;;;;4207550;28;20223;-77
2022/04/18 01:52:15;;;;;;;2.60;1.73;;;19.20;96.10;;;;;;4207831;28;20214;-76
2022/04/18 01:54:18;;;;;;;2.53;1.98;;;19.20;96.10;;;;;;4210498;28;20250;-77
2022/04/18 01:56:23;;;;;;;2.78;1.98;;;19.20;96.00;;;;;;4209838;28;20295;-77
2022/04/18 01:58:25;;;;;;;2.40;1.80;;;19.20;95.90;;;;;;4209096;28;20256;-77
2022/04/18 02:00:28;;;;;;;2.13;1.60;;;19.20;95.90;;;;;;4209629;28;20230;-77
2022/04/18 02:02:30;;;;;;;2.97;2.00;;;19.20;95.90;;;;;;4209629;28;20343;-77
2022/04/18 02:04:33;;;;;;;1.85;1.70;;;19.20;95.90;;;;;;4208035;28;20215;-77
2022/04/18 02:06:35;;;;;;;2.28;1.75;;;19.20;96.00;;;;;;4208365;28;20223;-77
2022/04/18 02:08:38;;;;;;;2.00;1.80;;;19.20;95.80;;;;;;4209719;28;20227;-77
2022/04/18 02:10:41;;;;;;;2.75;2.00;;;19.20;95.80;;;;;;4209533;28;20275;-77
2022/04/18 02:12:44;;;;;;;1.92;1.67;;;19.20;95.90;;;;;;4207912;28;20223;-77
2022/04/18 02:14:46;;;;;;;1.90;1.67;;;19.20;95.60;;;;;;4208614;28;20242;-77
2022/04/18 02:16:49;;;;;;;2.17;1.75;;;19.10;95.60;;;;;;4208721;28;20276;-77
2022/04/18 02:18:51;;;;;;;2.60;1.98;;;19.20;95.60;;;;;;4209707;28;20219;-77
2022/04/18 02:20:53;;;;;;;2.33;2.13;;;19.20;95.80;;;;;;4207580;28;20218;-77
2022/04/18 02:22:56;;;;;;;1.90;1.70;;;19.10;95.50;;;;;;4208621;28;20227;-77
2022/04/18 02:24:59;;;;;;;2.22;1.58;;;19.10;95.40;;;;;;4209700;28;20210;-77
2022/04/18 02:27:03;;;;;;;1.95;1.80;;;19.10;95.60;;;;;;4206814;28;20226;-77
2022/04/18 02:29:05;;;;;;;2.92;1.92;;;19.10;95.30;;;;;;4209279;28;20219;-77
2022/04/18 02:31:07;;;;;;;2.15;1.80;;;19.10;95.30;;;;;;4208852;28;20639;-77
2022/04/18 02:33:09;;;;;;;3.42;2.10;;;19.10;95.40;;;;;;4207981;28;20226;-76
2022/04/18 02:35:11;;;;;;;2.20;1.55;;;19.10;95.30;;;;;;4209313;28;20299;-77
2022/04/18 02:37:13;;;;;;;2.40;1.63;;;19.10;95.20;;;;;;4212990;28;20639;-77
2022/04/18 02:39:18;;;;;;;2.10;1.90;;;19.10;95.30;;;;;;4219432;28;20262;-77
2022/04/18 02:41:20;;;;;;;2.60;1.85;;;19.10;95.30;;;;;;4223621;28;20217;-77
2022/04/18 02:43:24;;;;;;;1.70;1.60;;;19.10;95.20;;;;;;4222192;28;20225;-77
2022/04/18 02:45:27;;;;;;;2.15;1.80;;;19.10;95.30;;;;;;4216754;28;20616;-77
2022/04/18 02:47:29;;;;;;;3.63;1.83;;;19.10;95.10;;;;;;4225113;28;20266;-77
2022/04/18 02:49:32;;;;;;;1.95;1.70;;;19.10;95.00;;;;;;4226694;28;20210;-77
2022/04/18 02:51:34;;;;;;;2.15;1.67;;;19.10;95.30;;;;;;4225830;28;20226;-77
2022/04/18 02:53:37;;;;;;;1.60;1.50;;;19.10;95.00;;;;;;4225995;28;20627;-77
2022/04/18 02:55:39;;;;;;;1.98;1.70;;;19.10;95.00;;;;;;4214429;28;20234;-77
2022/04/18 02:57:42;;;;;;;2.78;1.92;;;19.10;95.20;;;;;;4211381;28;20223;-77
2022/04/18 02:59:45;;;;;;;2.45;1.98;;;19.00;94.90;;;;;;4217684;27;20223;-77
2022/04/18 03:01:48;;;;;;;2.35;1.70;;;19.00;94.90;;;;;;4212402;28;20226;-77
2022/04/18 03:03:50;;;;;;;2.33;1.73;;;19.00;94.80;;;;;;4219772;28;20219;-77
2022/04/18 03:05:52;;;;;;;2.50;2.20;;;19.00;94.90;;;;;;4217874;28;20214;-77
2022/04/18 03:07:56;;;;;;;2.13;1.83;;;19.00;94.90;;;;;;4224535;28;20378;-77
2022/04/18 03:09:58;;;;;;;2.13;1.67;;;19.00;94.90;;;;;;4224632;28;20658;-77
2022/04/18 03:12:02;;;;;;;2.00;1.75;;;19.00;94.80;;;;;;4222741;28;20221;-77
2022/04/18 03:14:04;;;;;;;2.08;1.73;;;19.00;94.80;;;;;;4224765;28;20727;-77
2022/04/18 03:16:10;;;;;;;2.53;1.90;;;19.00;94.80;;;;;;4225548;27;20241;-77
2022/04/18 03:18:13;;;;;;;2.88;2.00;;;19.00;94.70;;;;;;4224602;27;20272;-77
2022/04/18 03:20:15;;;;;;;2.20;1.75;;;19.00;94.70;;;;;;4225070;28;20595;-77
2022/04/18 03:22:17;;;;;;;2.22;1.90;;;19.00;95.00;;;;;;4225320;27;20253;-77
2022/04/18 03:24:20;;;;;;;1.85;1.65;;;19.00;94.60;;;;;;4224776;27;20229;-77
2022/04/18 03:26:22;;;;;;;2.97;1.52;;;19.00;94.80;;;;;;4224855;27;20242;-77
2022/04/18 03:28:25;;;;;;;3.05;2.00;;;19.00;94.80;;;;;;4222549;28;20509;-77
2022/04/18 03:30:27;;;;;;;3.00;2.00;;;19.00;94.60;;;;;;4222444;28;20221;-77
2022/04/18 03:32:31;;;;;;;1.50;1.40;;;19.00;94.70;;;;;;4221522;27;20222;-77
2022/04/18 03:34:38;;;;;;;2.05;1.80;;;19.00;94.80;;;;;;4224240;28;20226;-77
2022/04/18 03:41:28;;;;;;;2.53;1.75;;;19.00;94.60;;;;;;4224969;28;20628;-77
2022/04/18 03:43:30;;;;;;;2.28;1.80;;;19.00;94.50;;;;;;4226066;28;20217;-74
2022/04/18 03:45:33;;;;;;;2.17;1.88;;;19.00;94.60;;;;;;4225260;27;20263;-74
2022/04/18 03:47:36;;;;;;;2.22;1.77;;;19.00;94.50;;;;;;4226717;27;20927;-74
2022/04/18 03:49:39;;;;;;;1.90;1.73;;;19.00;94.70;;;;;;4218218;28;20217;-74
2022/04/18 03:51:41;;;;;;;1.95;1.75;;;18.90;94.40;;;;;;4218988;27;20222;-74
2022/04/18 03:53:44;;;;;;;1.88;1.50;;;18.90;94.30;;;;;;4225551;28;20217;-74
2022/04/18 03:55:46;;;;;;;1.60;1.50;;;19.00;94.40;;;;;;4224166;27;20699;-74
2022/04/18 03:57:48;;;;;;;1.80;1.58;;;19.00;94.30;;;;;;4225873;28;20654;-74
2022/04/18 03:59:51;;;;;;;3.22;1.60;;;18.90;94.30;;;;;;4227447;27;20214;-74
2022/04/18 04:01:53;;;;;;;2.53;1.80;;;18.90;94.20;;;;;;4226348;27;20221;-74
2022/04/18 04:03:57;;;;;;;2.33;1.50;;;18.90;94.20;;;;;;4210208;28;20282;-74
2022/04/18 04:06:00;;;;;;;1.70;1.50;;;18.90;94.30;;;;;;4211316;28;20226;-74
2022/04/18 04:08:02;;;;;;;2.17;1.70;;;18.90;94.20;;;;;;4212518;28;20222;-74
2022/04/18 04:10:06;;;;;;;2.10;1.65;;;18.90;94.10;;;;;;4214089;28;20613;-74
2022/04/18 04:12:09;;;;;;;2.05;1.45;;;18.90;94.20;;;;;;4210682;28;20282;-74
2022/04/18 04:14:11;;;;;;;2.05;1.60;;;18.90;94.30;;;;;;4226303;27;20213;-74
2022/04/18 04:16:13;;;;;;;2.10;1.80;;;18.90;94.20;;;;;;4228795;27;20240;-74
2022/04/18 04:18:16;;;;;;;1.75;1.63;;;18.90;94.20;;;;;;4227554;27;20218;-74
2022/04/18 04:20:22;;;;;;;1.90;1.70;;;18.90;94.00;;;;;;4226861;27;20638;-74
2022/04/18 04:22:24;;;;;;;2.03;1.70;;;18.90;94.00;;;;;;4226032;27;20270;-74
2022/04/18 04:24:27;;;;;;;2.17;1.42;;;18.90;94.00;;;;;;4227641;27;20261;-74
2022/04/18 04:26:29;;;;;;;2.83;1.73;;;18.90;94.00;;;;;;4220874;28;20218;-74
2022/04/18 04:28:32;;;;;;;2.85;1.67;;;18.90;94.00;;;;;;4229433;27;20771;-74
2022/04/18 04:30:34;;;;;;;1.83;1.55;;;18.90;94.00;;;;;;4218434;27;20628;-74
2022/04/18 04:32:36;;;;;;;1.75;1.33;;;18.90;94.10;;;;;;4205359;28;20280;-74
2022/04/18 04:34:40;;;;;;;1.65;1.42;;;18.90;94.30;;;;;;4215019;27;20677;-74
2022/04/18 04:36:46;;;;;;;2.42;1.58;;;18.90;94.00;;;;;;4223309;27;20286;-74
2022/04/18 04:38:48;;;;;;;1.75;1.52;;;18.90;93.90;;;;;;4223690;28;20863;-74
2022/04/18 04:40:53;;;;;;;2.47;1.85;;;18.90;94.00;;;;;;4224413;28;20217;-74
2022/04/18 04:42:55;;;;;;;1.83;1.42;;;18.90;94.00;;;;;;4223924;28;20225;-74
2022/04/18 04:44:57;;;;;;;1.70;1.50;;;18.90;94.10;;;;;;4224192;27;20222;-74
2022/04/18 04:47:00;;;;;;;1.33;1.23;;;18.90;93.90;;;;;;4222491;28;20591;-74
2022/04/18 04:49:02;;;;;;;2.47;1.70;;;18.90;93.80;;;;;;4223466;28;20218;-74
2022/04/18 04:51:05;;;;;;;1.58;1.40;;;18.90;93.90;;;;;;4224853;28;20719;-74
2022/04/18 04:53:09;;;;;;;2.50;1.73;;;18.90;93.80;;;;;;4223257;28;21593;-74
2022/04/18 04:55:13;;;;;;;2.25;1.70;;;18.90;93.70;;;;;;4225939;28;20213;-74
2022/04/18 04:57:15;;;;;;;1.67;1.35;;;18.90;93.90;;;;;;4225748;28;20291;-74
2022/04/18 04:59:17;;;;;;;2.58;1.83;;;18.90;94.10;;;;;;4222805;28;20280;-74
2022/04/18 05:01:19;;;;;;;2.38;1.70;;;18.90;93.80;;;;;;4225093;28;20893;-74
2022/04/18 05:03:22;;;;;;;1.73;1.52;;;18.90;93.70;;;;;;4224256;28;20213;-74
2022/04/18 05:05:24;;;;;;;2.20;1.60;;;18.90;93.90;;;;;;4224152;28;20278;-74
2022/04/18 05:07:26;;;;;;;2.10;1.55;;;18.90;93.60;;;;;;4223357;28;20210;-74
2022/04/18 05:09:30;;;;;;;2.03;1.58;;;18.90;93.60;;;;;;4221414;28;20270;-74
2022/04/18 05:11:32;;;;;;;1.40;1.30;;;18.90;93.60;;;;;;4223505;28;20210;-74
2022/04/18 05:13:35;;;;;;;2.13;1.70;;;18.80;93.70;;;;;;4224300;28;20225;-74
2022/04/18 05:15:39;;;;;;;2.28;1.70;;;18.80;93.70;;;;;;4224538;28;20213;-74
2022/04/18 05:17:41;;;;;;;1.90;1.70;;;18.80;93.70;;;;;;4224706;28;20221;-74
2022/04/18 05:19:45;;;;;;;2.15;1.40;;;18.90;93.80;;;;;;4218683;28;20213;-74
2022/04/18 05:21:47;;;;;;;1.58;1.30;;;18.80;93.70;;;;;;4223719;28;20217;-74
2022/04/18 05:23:50;;;;;;;1.50;1.40;;;18.80;93.60;;;;;;4222950;28;20274;-74
2022/04/18 05:25:54;;;;;;;1.80;1.40;;;18.80;93.70;;;;;;4221407;28;20283;-74
2022/04/18 05:27:56;;;;;;;1.75;1.40;;;18.80;93.70;;;;;;4223834;28;20222;-74
2022/04/18 05:29:59;;;;;;;2.13;1.35;;;18.80;93.70;;;;;;4225967;27;20278;-74
2022/04/18 05:32:01;;;;;;;2.10;1.45;;;18.80;93.70;;;;;;4226889;27;21518;-74
2022/04/18 05:34:03;;;;;;;1.65;1.33;;;18.80;93.60;;;;;;4226578;27;20230;-74
2022/04/18 05:36:07;;;;;;;2.03;1.48;;;18.80;93.60;;;;;;4222341;28;20292;-74
2022/04/18 05:38:09;;;;;;;1.67;1.38;;;18.90;93.70;;;;;;4214321;28;20217;-74
2022/04/18 05:40:12;;;;;;;1.58;1.35;;;18.80;93.50;;;;;;4209087;28;20264;-74
2022/04/18 05:42:16;;;;;;;2.30;1.67;;;18.80;93.50;;;;;;4211678;28;20222;-74
2022/04/18 05:44:18;;;;;;;1.58;1.20;;;18.80;93.60;;;;;;4210537;28;20223;-74
2022/04/18 05:46:20;;;;;;;2.58;1.65;;;18.80;93.70;;;;;;4211662;28;20671;-74
2022/04/18 05:48:23;;;;;;;1.95;1.40;;;18.90;93.60;;;;;;4214208;28;20716;-74
2022/04/18 05:50:25;;;;;;;2.80;1.52;;;18.80;93.60;;;;;;4211378;28;20656;-74
2022/04/18 05:52:27;;;;;;;1.88;1.40;;;18.90;93.80;;;;;;4212257;28;20659;-74
2022/04/18 05:54:32;;;;;;;1.73;1.33;;;18.90;93.80;;;;;;4211584;28;20306;-74
2022/04/18 05:56:37;;;;;;;1.65;1.38;;;18.90;93.70;;;;;;4208840;28;20287;-74
2022/04/18 05:58:42;;;;;;;2.33;1.50;;;18.90;94.00;;;;;;4213627;28;20276;-74
2022/04/18 06:00:44;;;;;;;1.60;1.50;;;18.90;93.60;;;;;;4212703;28;20271;-74
2022/04/18 06:02:47;;;;;;;1.83;1.40;;;19.00;94.00;;;;;;4210313;28;20272;-74
2022/04/18 06:04:53;;;;;;;1.92;1.42;;;19.00;93.80;;;;;;4212693;28;20371;-74
2022/04/18 06:06:55;;;;;;;2.22;1.65;;;19.00;93.70;;;;;;4211198;28;20214;-74
2022/04/18 06:08:57;;;;;;;1.67;1.50;;;19.00;93.70;;;;;;4213156;28;20623;-74
2022/04/18 06:10:59;;;;;;;1.90;1.30;;;19.00;93.70;;;;;;4211352;28;20296;-74
2022/04/18 06:13:04;;;;;;;2.60;1.55;;;19.00;93.70;;;;;;4211728;28;20218;-74
2022/04/18 06:15:09;;;;;;;1.45;1.35;;;19.10;93.70;;;;;;4211477;28;20214;-74
2022/04/18 06:17:11;;;;;;;1.88;1.38;;;19.10;93.90;;;;;;4213119;28;20264;-74
2022/04/18 06:19:14;;;;;;;1.63;1.50;;;19.00;93.70;;;;;;4206667;28;20214;-74
2022/04/18 06:21:16;;;;;;;2.10;1.33;;;19.10;94.20;;;;;;4211791;28;20638;-75
2022/04/18 06:23:18;;;;;;;1.90;1.60;;;19.10;94.10;;;;;;4216403;28;21817;-74
2022/04/18 06:25:21;;;;;;;1.80;1.48;;;19.10;94.20;;;;;;4209939;28;20222;-74
2022/04/18 06:27:26;;;;;;;1.92;1.50;;;19.10;94.10;;;;;;4211776;28;20678;-74
2022/04/18 06:29:28;;;;;;;2.97;1.50;;;19.10;94.10;;;;;;4211718;28;20222;-74
2022/04/18 06:31:32;;;;;;;2.75;1.30;;;19.10;94.30;;;;;;4212617;28;20725;-74
2022/04/18 06:33:35;;;;;;;2.25;1.55;;;19.10;94.20;;;;;;4215306;28;20254;-74
2022/04/18 06:35:37;;;;;;;2.20;1.33;;;19.10;94.10;;;;;;4212669;27;20238;-74
2022/04/18 06:37:39;;;;;;;1.40;1.30;;;19.10;94.20;;;;;;4229920;27;20237;-74
2022/04/18 06:39:43;;;;;;;1.83;1.33;;;19.10;94.00;;;;;;4229382;27;20270;-74
2022/04/18 06:41:45;;;;;;;2.28;1.63;;;19.10;94.10;;;;;;4229973;27;20226;-74
2022/04/18 06:43:47;;;;;;;3.10;1.77;;;19.10;94.00;;;;;;4231073;27;20296;-74
2022/04/18 06:45:53;;;;;;;1.80;1.40;;;19.10;94.10;;;;;;4230683;27;20213;-74
2022/04/18 06:47:57;;;;;;;2.40;1.45;;;19.10;94.10;;;;;;4230833;27;20268;-74
2022/04/18 06:49:59;;;;;;;2.42;1.58;;;19.20;94.10;;;;;;4230311;27;20261;-74
2022/04/18 06:52:04;;;;;;;1.95;1.58;;;19.20;94.00;;;;;;4228904;27;20556;-74
2022/04/18 06:54:06;;;;;;;3.38;1.45;;;19.20;94.00;;;;;;4228917;27;20218;-74
2022/04/18 06:58:29;;;;;;;1.83;1.40;;;19.20;94.10;;;;;;4231633;27;20614;-74
2022/04/18 07:00:31;;;;;;;1.25;1.15;;;19.20;94.00;;;;;;4232511;27;20226;-74
2022/04/18 07:02:36;;;;;;;2.20;1.50;;;19.20;93.90;;;;;;4232103;27;20638;-74
2022/04/18 07:04:39;;;;;;;2.40;1.50;;;19.20;93.90;;;;;;4233067;27;20287;-74
2022/04/18 07:06:43;;;;;;;1.95;1.55;;;19.20;93.90;;;;;;4232594;27;20681;-74
2022/04/18 07:08:46;;;;;;;1.52;1.35;;;19.20;94.00;;;;;;4224682;27;20266;-74
2022/04/18 07:10:49;;;;;;;1.77;1.48;;;19.20;94.20;;;;;;4229981;27;20222;-74
2022/04/18 07:12:51;;;;;;;2.28;1.30;;;19.20;94.00;;;;;;4235076;27;20218;-74
2022/04/18 07:14:54;;;;;;;1.80;1.40;;;19.20;93.90;;;;;;4232141;27;20716;-74
2022/04/18 07:16:57;;;;;;;1.90;1.70;;;19.20;94.00;;;;;;4231519;27;20240;-74
2022/04/18 07:19:00;;;;;;;1.92;1.35;;;19.20;94.40;;;;;;4228743;27;20221;-74
2022/04/18 07:21:04;;;;;;;1.33;1.23;;;19.20;94.00;;;;;;4232216;27;20719;-74
2022/04/18 07:23:06;;;;;;;1.95;1.30;;;19.20;94.10;;;;;;4231724;27;20225;-74
2022/04/18 07:25:09;;;;;;;1.58;1.42;;;19.20;94.10;;;;;;4231314;27;20221;-74
2022/04/18 07:27:11;;;;;;;1.67;1.40;;;19.20;94.10;;;;;;4230590;27;20986;-74
2022/04/18 07:29:15;;;;;;;1.60;1.40;;;19.20;94.00;;;;;;4230984;27;20274;-74
2022/04/18 07:31:18;;;;;;;2.17;1.50;;;19.20;94.00;;;;;;4231338;27;20264;-74
2022/04/18 07:33:20;;;;;;;1.73;1.30;;;19.20;94.10;;;;;;4231437;27;20214;-74
2022/04/18 07:35:23;;;;;;;2.00;1.40;;;19.20;94.10;;;;;;4229845;27;20221;-74
2022/04/18 07:37:26;;;;;;;1.75;1.27;;;19.20;94.00;;;;;;4226407;27;20235;-74
2022/04/18 07:39:30;;;;;;;1.90;1.50;;;19.20;94.00;;;;;;4224995;28;20221;-74
2022/04/18 07:41:32;;;;;;;1.90;1.20;;;19.30;94.00;;;;;;4225891;27;20605;-74
2022/04/18 07:43:35;;;;;;;1.77;1.45;;;19.20;94.00;;;;;;4225545;27;20292;-74
2022/04/18 07:45:38;;;;;;;1.77;1.20;;;19.20;93.90;;;;;;4224838;27;20326;-74
2022/04/18 07:47:40;;;;;;;1.38;1.23;;;19.20;93.90;;;;;;4226799;27;20236;-74
2022/04/18 07:49:42;;;;;;;3.10;1.33;;;19.20;93.90;;;;;;4225469;27;20221;-74
2022/04/18 07:51:44;;;;;;;2.28;1.40;;;19.20;93.90;;;;;;4226775;27;20221;-74
2022/04/18 07:53:48;;;;;;;1.45;1.35;;;19.20;94.00;;;;;;4225698;27;20217;-74
2022/04/18 07:55:50;;;;;;;1.73;1.40;;;19.20;93.90;;;;;;4225887;27;20217;-74
2022/04/18 07:57:53;;;;;;;1.85;1.40;;;19.30;93.90;;;;;;4226204;28;20245;-74
2022/04/18 07:59:55;;;;;;;1.65;1.20;;;19.20;94.20;;;;;;4223893;28;20276;-74
2022/04/18 08:01:57;;;;;;;2.85;1.50;;;19.20;93.80;;;;;;4221608;27;20271;-74
2022/04/18 08:04:01;;;;;;;2.05;1.17;;;19.20;93.80;;;;;;4223644;28;20343;-74
2022/04/18 08:06:03;;;;;;;1.83;1.35;;;19.20;93.80;;;;;;4223674;28;20271;-74
2022/04/18 08:08:07;;;;;;;1.73;1.38;;;19.20;93.90;;;;;;4222782;27;20213;-74
2022/04/18 08:10:11;;;;;;;2.65;1.35;;;19.20;93.90;;;;;;4224716;28;20680;-74
2022/04/18 08:12:13;;;;;;;1.70;1.30;;;19.20;93.90;;;;;;4223009;28;20283;-74
2022/04/18 08:14:15;;;;;;;2.53;1.20;;;19.20;94.20;;;;;;4224073;28;20218;-74
2022/04/18 08:16:19;;;;;;;1.40;1.30;;;19.30;93.90;;;;;;4222130;28;20278;-74
2022/04/18 08:18:22;;;;;;;1.35;1.23;;;19.20;93.70;;;;;;4221371;28;20294;-74
2022/04/18 08:20:25;;;;;;;3.10;1.40;;;19.20;93.50;;;;;;4224671;27;20751;-74
2022/04/18 08:22:27;;;;;;;2.72;1.55;;;19.20;93.50;;;;;;4222843;28;20267;-74
2022/04/18 08:24:29;;;;;;;1.52;1.20;;;19.20;93.90;;;;;;4225534;27;20266;-74
2022/04/18 08:26:33;;;;;;;1.75;1.35;;;19.20;93.40;;;;;;4225822;27;20221;-74
2022/04/18 08:28:36;;;;;;;1.83;1.30;;;19.20;93.40;;;;;;4225211;27;20282;-74
2022/04/18 08:30:38;;;;;;;1.48;1.20;;;19.30;93.40;;;;;;4225324;27;20274;-74
2022/04/18 08:32:41;;;;;;;1.38;1.17;;;19.30;93.30;;;;;;4223640;28;20670;-74
2022/04/18 08:34:44;;;;;;;1.67;1.23;;;19.30;93.30;;;;;;4222852;27;20737;-74
2022/04/18 08:36:46;;;;;;;2.20;1.15;;;19.30;93.20;;;;;;4223407;28;20286;-74
2022/04/18 08:38:48;;;;;;;1.27;1.17;;;19.30;93.20;;;;;;4224133;28;20288;-74
2022/04/18 08:40:51;;;;;;;1.30;1.15;;;19.30;93.30;;;;;;4224684;27;20226;-74
2022/04/18 08:42:56;;;;;;;2.50;1.40;;;19.30;93.00;;;;;;4223862;28;20234;-74
2022/04/18 08:45:01;;;;;;;1.95;1.55;;;19.30;93.20;;;;;;4224626;28;20898;-73
2022/04/18 08:47:04;;;;;;;1.33;1.20;;;19.30;93.10;;;;;;4222497;28;20229;-74
2022/04/18 08:53:47;;;;;;;1.67;1.30;;;19.30;93.00;;;;;;4226468;28;20214;-74
2022/04/18 08:55:49;;;;;;;2.15;1.40;;;19.40;93.30;;;;;;4217431;28;20313;-74
2022/04/18 08:57:52;;;;;;;1.40;1.20;;;19.40;93.20;;;;;;4223894;28;20217;-74
2022/04/18 08:59:56;;;;;;;1.63;1.40;;;19.40;93.00;;;;;;4224788;28;20279;-74
2022/04/18 09:01:59;;;;;;;1.73;1.50;;;19.40;93.60;;;;;;4226928;28;20221;-74
2022/04/18 09:04:02;;;;;;;2.05;1.20;;;19.40;93.30;;;;;;4230611;27;20221;-74
2022/04/18 09:06:10;;;;;;;1.67;1.45;;;19.40;93.50;;;;;;4228852;28;20218;-74
2022/04/18 09:08:13;;;;;;;1.33;1.20;;;19.40;93.50;;;;;;4226688;27;20221;-74
2022/04/18 09:10:23;;;;;;;2.30;1.20;;;19.40;93.20;;;;;;4229413;27;20229;-74
2022/04/18 09:12:28;;;;;;;2.25;1.30;;;19.40;93.40;;;;;;4228465;28;20267;-73
2022/04/18 09:14:34;;;;;;;1.45;1.17;;;19.40;93.50;;;;;;4231254;27;20241;-73
2022/04/18 09:16:39;;;;;;;1.30;1.20;;;19.40;93.60;;;;;;4230012;27;20267;-73
2022/04/18 09:18:42;;;;;;;1.65;1.20;;;19.40;93.60;;;;;;4228094;28;20623;-74
2022/04/18 09:20:46;;;;;;;2.03;1.35;;;19.40;93.50;;;;;;4230031;27;20658;-74
2022/04/18 09:22:49;;;;;;;1.20;1.10;;;19.50;93.90;;;;;;4229589;27;20236;-73
2022/04/18 09:24:55;;;;;;;1.52;1.38;;;19.40;93.20;;;;;;4231677;27;20209;-74
2022/04/18 09:26:58;;;;;;;1.60;1.50;;;19.50;93.10;;;;;;4226757;28;20214;-74
2022/04/18 09:29:05;;;;;;;2.15;1.35;;;19.50;93.30;;;;;;4230068;27;20658;-74
2022/04/18 09:31:09;;;;;;;1.58;1.20;;;19.40;93.30;;;;;;4228759;28;20226;-74
2022/04/18 09:33:15;;;;;;;1.40;1.23;;;19.50;93.50;;;;;;4229873;27;20256;-74
2022/04/18 09:35:17;;;;;;;1.75;1.45;;;19.50;93.50;;;;;;4229546;27;20278;-74
2022/04/18 09:37:19;;;;;;;1.35;1.10;;;19.50;93.30;;;;;;4218921;27;20283;-73
2022/04/18 09:39:25;;;;;;;2.03;1.38;;;19.50;93.10;;;;;;4213924;28;20348;-74
2022/04/18 09:41:29;;;;;;;1.50;1.20;;;19.50;93.00;;;;;;4216511;28;20265;-74
2022/04/18 09:43:39;;;;;;;1.55;1.38;;;19.50;93.30;;;;;;4214211;28;20217;-73
2022/04/18 09:45:42;;;;;;;1.40;1.20;;;19.50;93.30;;;;;;4216032;28;20735;-74
2022/04/18 09:47:44;;;;;;;1.50;1.30;;;19.50;93.50;;;;;;4214151;28;20225;-74
2022/04/18 09:49:48;;;;;;;1.35;1.15;;;19.50;93.30;;;;;;4216426;28;20616;-74
2022/04/18 09:51:52;;;;;;;2.35;1.50;;;19.50;93.50;;;;;;4214853;28;20686;-74
2022/04/18 09:53:57;;;;;;;1.55;1.30;;;19.50;93.20;;;;;;4218153;28;20222;-74
2022/04/18 09:55:59;;;;;;;2.50;1.55;;;19.50;93.50;;;;;;4214514;28;20616;-73
2022/04/18 09:58:05;;;;;;;1.50;1.10;;;19.60;93.10;;;;;;4214650;28;20221;-73
2022/04/18 10:00:09;;;;;;;1.48;1.30;;;19.50;93.10;;;;;;4216430;28;20282;-74
2022/04/18 10:02:14;;;;;;;1.50;1.30;;;19.60;93.30;;;;;;4214753;28;20280;-74
2022/04/18 10:04:20;;;;;;;1.65;1.20;;;19.60;93.20;;;;;;4212658;28;20222;-74
2022/04/18 10:06:24;;;;;;;1.63;1.40;;;19.50;93.00;;;;;;4211454;28;20355;-73
2022/04/18 10:08:28;;;;;;;1.45;1.27;;;19.60;92.90;;;;;;4210284;28;20682;-74
2022/04/18 10:10:31;;;;;;;3.45;1.40;;;19.60;93.00;;;;;;4213709;28;20222;-74
2022/04/18 10:12:34;;;;;;;1.80;1.20;;;19.60;93.10;;;;;;4215801;28;20278;-74
2022/04/18 10:14:37;;;;;;;1.73;1.10;;;19.60;93.30;;;;;;4211800;28;20270;-74
2022/04/18 10:16:41;;;;;;;1.60;1.40;;;19.60;93.10;;;;;;4211491;28;20996;-74
2022/04/18 10:18:48;;;;;;;2.35;1.20;;;19.60;93.10;;;;;;4214122;28;20238;-74
2022/04/18 10:21:20;;;;;;;1.52;1.42;;;19.60;93.10;;;;;;4209723;28;20218;-74
2022/04/18 10:23:40;;;;;;;1.58;1.20;;;19.60;92.80;;;;;;4197581;28;20218;-74
2022/04/18 10:26:01;;;;;;;1.10;1.00;;;19.60;93.30;;;;;;4210515;28;20226;-74
2022/04/18 10:28:08;;;;;;;1.25;1.10;;;19.60;92.90;;;;;;4212699;28;21341;-74
2022/04/18 10:30:13;;;;;;;1.50;1.40;;;19.60;92.70;;;;;;4212182;28;20209;-74
2022/04/18 10:32:21;;;;;;;2.22;1.02;;;19.60;92.60;;;;;;4212820;28;20682;-74
2022/04/18 10:34:26;;;;;;;1.60;1.13;;;19.60;92.40;;;;;;4210435;28;20260;-74
2022/04/18 10:36:32;;;;;;;1.45;1.08;;;19.60;92.50;;;;;;4211344;28;20641;-74
2022/04/18 10:38:37;;;;;;;1.67;1.20;;;19.60;92.50;;;;;;4208002;28;20300;-74
2022/04/18 10:40:41;;;;;;;2.13;1.42;;;19.60;92.60;;;;;;4209596;28;20238;-74
2022/04/18 10:42:43;;;;;;;1.45;1.35;;;19.60;92.80;;;;;;4207982;28;20280;-74
2022/04/18 10:44:59;;;;;;;1.33;1.20;;;19.60;92.60;;;;;;4203453;28;20263;-74
2022/04/18 10:47:04;;;;;;;1.30;1.20;;;19.60;92.60;;;;;;4209792;28;20268;-74
2022/04/18 10:49:15;;;;;;;2.25;1.25;;;19.60;93.00;;;;;;4209422;28;20223;-74
2022/04/18 10:51:28;;;;;;;1.90;1.40;;;19.60;92.60;;;;;;4207271;28;20210;-74
2022/04/18 10:53:35;;;;;;;1.40;1.20;;;19.60;92.70;;;;;;4208578;28;20264;-74
2022/04/18 10:55:39;;;;;;;1.30;1.20;;;19.60;92.70;;;;;;4203740;28;20276;-74
2022/04/18 10:57:42;;;;;;;1.60;1.27;;;19.60;92.60;;;;;;4208851;28;20256;-74
2022/04/18 10:59:46;;;;;;;2.42;1.10;;;19.60;92.60;;;;;;4208775;28;20242;-73